createdAt,value
2022-11-08T00:00:26.744Z,0.01
2022-11-08T00:12:27.201Z,0.00
2022-11-08T00:24:27.636Z,0.00
2022-11-08T00:36:28.075Z,0.00
2022-11-08T00:48:28.574Z,0.17
2022-11-08T01:00:28.980Z,0.11
2022-11-08T01:12:29.424Z,0.01
2022-11-08T01:24:29.909Z,0.01
2022-11-08T01:36:30.365Z,0.00
2022-11-08T01:48:30.795Z,0.00
2022-11-08T02:00:32.071Z,0.00
2022-11-08T02:12:31.754Z,0.02
2022-11-08T02:24:32.186Z,0.17
2022-11-08T02:36:32.601Z,0.06
2022-11-08T02:48:33.045Z,0.11
2022-11-08T03:00:33.517Z,0.00
2022-11-08T03:12:33.992Z,0.12
2022-11-08T03:24:34.392Z,0.22
2022-11-08T03:36:34.850Z,0.00
2022-11-08T03:48:35.341Z,0.00
2022-11-08T04:00:35.757Z,0.35
2022-11-08T04:12:36.250Z,0.05
2022-11-08T04:24:36.714Z,0.15
2022-11-08T04:36:37.140Z,0.00
2022-11-08T04:48:37.602Z,0.00
2022-11-08T05:00:38.041Z,0.00
2022-11-08T05:12:38.483Z,0.00
2022-11-08T05:24:38.976Z,0.06
2022-11-08T05:36:39.428Z,0.00
2022-11-08T05:48:39.836Z,0.07
2022-11-08T06:00:40.300Z,0.05
2022-11-08T06:12:40.782Z,0.00
2022-11-08T06:24:41.212Z,0.03
2022-11-08T06:36:41.631Z,0.03
2022-11-08T06:48:42.105Z,0.00
2022-11-08T07:00:42.521Z,0.25
2022-11-08T07:12:43.010Z,0.01
2022-11-08T07:24:43.444Z,0.51
2022-11-08T07:36:43.935Z,0.42
2022-11-08T07:48:44.365Z,0.47
2022-11-08T08:00:44.825Z,0.50
2022-11-08T08:12:45.260Z,0.13
2022-11-08T08:24:45.748Z,0.74
2022-11-08T08:36:46.192Z,0.66
2022-11-08T08:48:46.647Z,0.62
2022-11-08T09:12:47.545Z,1.18
2022-11-08T09:24:47.958Z,0.51
2022-11-08T09:36:48.471Z,0.77
2022-11-08T09:48:48.889Z,1.00
2022-11-08T10:00:49.347Z,0.40
2022-11-08T10:12:49.872Z,2.91
2022-11-08T10:24:50.274Z,2.16
2022-11-08T10:36:50.748Z,1.60
2022-11-08T10:48:51.189Z,2.31
2022-11-08T11:00:51.622Z,1.56
2022-11-08T11:12:52.102Z,2.32
2022-11-08T11:24:52.535Z,1.62
2022-11-08T11:36:52.972Z,2.77
2022-11-08T11:48:53.440Z,0.74
2022-11-08T12:00:53.929Z,0.32
2022-11-08T12:12:54.367Z,0.96
2022-11-08T12:24:54.805Z,1.52
2022-11-08T12:36:55.298Z,1.40
2022-11-08T12:48:55.771Z,1.32
2022-11-08T13:00:56.222Z,0.55
2022-11-08T13:12:56.665Z,0.56
2022-11-08T13:24:57.122Z,0.97
2022-11-08T13:36:57.597Z,0.35
2022-11-08T13:48:58.074Z,0.66
2022-11-08T14:00:58.515Z,0.54
2022-11-08T14:12:58.907Z,0.89
2022-11-08T14:24:59.407Z,0.30
2022-11-08T14:36:59.862Z,0.54
2022-11-08T14:49:00.253Z,0.28
2022-11-08T15:01:00.881Z,0.26
2022-11-08T15:13:01.214Z,0.26
2022-11-08T15:25:01.642Z,0.01
2022-11-08T15:37:02.095Z,0.00
2022-11-08T15:49:02.552Z,0.07
2022-11-08T16:01:03.083Z,0.02
2022-11-08T16:13:03.452Z,0.14
2022-11-08T16:25:03.938Z,0.05
2022-11-08T16:37:04.371Z,0.07
2022-11-08T16:49:04.845Z,0.01
2022-11-08T17:01:10.171Z,0.22
2022-11-08T17:13:05.710Z,0.34
2022-11-08T17:25:06.186Z,0.24
2022-11-08T17:37:06.689Z,0.41
2022-11-08T17:49:07.114Z,0.43
2022-11-08T18:01:07.715Z,0.27
2022-11-08T18:13:08.024Z,0.24
2022-11-08T18:25:08.460Z,0.04
2022-11-08T18:37:08.902Z,0.16
2022-11-08T18:49:09.398Z,0.09
2022-11-08T19:01:09.787Z,0.19
2022-11-08T19:13:10.292Z,0.06
2022-11-08T19:25:10.761Z,0.49
2022-11-08T19:37:11.157Z,0.13
2022-11-08T19:49:11.596Z,0.22
2022-11-08T20:01:12.265Z,0.66
2022-11-08T20:13:12.528Z,1.34
2022-11-08T20:25:12.970Z,0.54
2022-11-08T20:37:13.403Z,1.55
2022-11-08T20:49:13.905Z,0.26
2022-11-08T21:01:14.511Z,0.01
2022-11-08T21:13:14.793Z,0.15
2022-11-08T21:25:15.227Z,0.12
2022-11-08T21:37:15.711Z,0.01
2022-11-08T21:49:16.154Z,0.00
2022-11-08T22:01:16.701Z,0.19
2022-11-08T22:13:17.027Z,0.03
2022-11-08T22:25:17.521Z,0.09
2022-11-08T22:37:17.965Z,0.06
2022-11-08T22:49:18.415Z,0.18
2022-11-08T23:01:18.860Z,0.32
2022-11-08T23:13:19.683Z,0.24
2022-11-08T23:25:19.775Z,0.02
2022-11-08T23:37:20.201Z,0.38
2022-11-08T23:49:20.668Z,0.27
